TrOMS Arcturus — LKNL — position and weather

sailwx.info

Track history (hours):
 
Tides and Currents Weather Stations Pressure Air Temp Water Temp Dewpoint Dewpoint Depression Visibility Wind Speed Wind Dir Waves Ship Positions

TrOMS Arcturus

Last reported at 2018-Nov-11 02:32 UTC. Time now 2018-Nov-13 06:37 UTC.
Position N 64°26' E 007°39'.

Length 95 m; draft 5.9 m.

Type: Cargo ship. MMSI: 257131000.

Date/timePositionNaut miles runAvg speedWind from/ knotsBaromVisibWave heightAir tempDewpointWater temp
2018-Nov-11 02:32N 64°26' E 007°39'4 8.8
2018-Nov-11 02:02N 64°22' E 007°44'2 3.1
2018-Nov-11 01:32N 64°21' E 007°47'0 0.0
2018-Nov-11 01:02N 64°21' E 007°47'0 0.0
2018-Nov-11 00:31N 64°21' E 007°47'0 0.0
2018-Nov-11 00:02N 64°21' E 007°47'0 0.7
2018-Nov-10 23:32N 64°21' E 007°46'3 6.6
2018-Nov-10 23:02N 64°18' E 007°43'4 7.9
2018-Nov-10 22:32N 64°14' E 007°41'4 7.2
2018-Nov-10 22:02N 64°11' E 007°40'4 8.0
2018-Nov-10 21:32N 64°07' E 007°40'4 8.4
2018-Nov-10 21:01N 64°02' E 007°40'4 9.0
2018-Nov-10 20:32N 63°58' E 007°39'5 9.3
2018-Nov-10 20:02N 63°53' E 007°40'5 9.9
2018-Nov-10 19:32N 63°48' E 007°40'510.2
2018-Nov-10 19:02N 63°43' E 007°38'510.2
2018-Nov-10 18:32N 63°38' E 007°38'510.3
2018-Nov-10 18:02N 63°33' E 007°37'510.8
2018-Nov-10 17:32N 63°28' E 007°37'611.4
2018-Nov-10 17:02N 63°22' E 007°37'510.6
2018-Nov-10 16:32N 63°17' E 007°37'510.4
2018-Nov-10 16:02N 63°13' E 007°44'5 9.4
2018-Nov-10 15:32N 63°08' E 007°41'3 6.6
2018-Nov-10 15:02N 63°06' E 007°47'0 0.1
2018-Nov-10 14:32N 63°06' E 007°47'0 0.0
2018-Nov-10 14:02N 63°06' E 007°47'0 0.0
2018-Nov-10 13:32N 63°06' E 007°47'0 0.0
2018-Nov-10 13:02N 63°06' E 007°47'0 0.0
2018-Nov-10 12:32N 63°06' E 007°47'0 0.0
2018-Nov-10 12:02N 63°06' E 007°47'0 0.0
2018-Nov-10 11:32N 63°06' E 007°47'0 0.0
2018-Nov-10 11:02N 63°06' E 007°47'0 0.0
2018-Nov-10 10:32N 63°06' E 007°47'0 0.0
2018-Nov-10 10:02N 63°06' E 007°47'0 0.0
2018-Nov-10 09:32N 63°06' E 007°47'0 0.0
2018-Nov-10 09:02N 63°06' E 007°47'0 0.0
2018-Nov-10 08:32N 63°06' E 007°47'0 0.0
2018-Nov-10 08:02N 63°06' E 007°47'0 0.0
2018-Nov-10 07:32N 63°06' E 007°47'0 0.0
2018-Nov-10 07:02N 63°06' E 007°47'0 0.0
2018-Nov-10 06:32N 63°06' E 007°47'0 0.0
2018-Nov-10 06:02N 63°06' E 007°47'0 0.0
2018-Nov-10 05:32N 63°06' E 007°47'0 0.0
2018-Nov-10 05:02N 63°06' E 007°47'0 0.0
2018-Nov-10 04:32N 63°06' E 007°47'0 0.0
2018-Nov-10 04:02N 63°06' E 007°47'0 0.0
2018-Nov-10 03:32N 63°06' E 007°47'0 0.0
2018-Nov-10 03:02N 63°06' E 007°47'0 0.0
2018-Nov-10 02:32N 63°06' E 007°47'0 0.0
2018-Nov-10 02:02N 63°06' E 007°47'0 0.0
2018-Nov-10 01:32N 63°06' E 007°47'0 0.0
2018-Nov-10 01:02N 63°06' E 007°47'0 0.0
2018-Nov-10 00:32N 63°06' E 007°47'0 0.0
2018-Nov-10 00:02N 63°06' E 007°47'0 0.0
2018-Nov-09 23:32N 63°06' E 007°47'0 0.0
2018-Nov-09 23:02N 63°06' E 007°47'0 0.0
2018-Nov-09 22:32N 63°06' E 007°47'0 0.0
2018-Nov-09 22:02N 63°06' E 007°47'0 0.0
2018-Nov-09 21:32N 63°06' E 007°47'0 0.0
2018-Nov-09 20:59N 63°06' E 007°47'0 0.0
2018-Nov-09 20:32N 63°06' E 007°47'0 0.0
2018-Nov-09 20:02N 63°06' E 007°47'0 0.0
2018-Nov-09 19:32N 63°06' E 007°47'0 0.0
2018-Nov-09 19:02N 63°06' E 007°47'0 0.0
2018-Nov-09 18:32N 63°06' E 007°47'0 0.0
2018-Nov-09 18:02N 63°06' E 007°47'0 0.0
2018-Nov-09 17:32N 63°06' E 007°47'0 0.0
2018-Nov-09 17:02N 63°06' E 007°47'0 0.0
2018-Nov-09 16:32N 63°06' E 007°47'0 0.0
2018-Nov-09 16:02N 63°06' E 007°47'0 0.0
2018-Nov-09 15:32N 63°06' E 007°47'0 0.0
2018-Nov-09 15:02N 63°06' E 007°47'0 0.0
2018-Nov-09 14:32N 63°06' E 007°47'0 0.0
2018-Nov-09 14:02N 63°06' E 007°47'0 0.0
2018-Nov-09 13:32N 63°06' E 007°47'0 0.0
2018-Nov-09 13:02N 63°06' E 007°47'0 0.0
2018-Nov-09 12:32N 63°06' E 007°47'0 0.0
2018-Nov-09 12:01N 63°06' E 007°47'0 0.0
2018-Nov-09 11:32N 63°06' E 007°47'0 0.0
2018-Nov-09 11:02N 63°06' E 007°47'0 0.0
2018-Nov-09 10:32N 63°06' E 007°47'0 0.0
2018-Nov-09 10:02N 63°06' E 007°47'0 0.0
2018-Nov-09 09:32N 63°06' E 007°47'0 0.0
2018-Nov-09 09:02N 63°06' E 007°47'0 0.0
2018-Nov-09 08:31N 63°06' E 007°47'0 0.0
2018-Nov-09 08:01N 63°06' E 007°47'0 0.0
2018-Nov-09 07:32N 63°06' E 007°47'0 0.0
2018-Nov-09 07:01N 63°06' E 007°47'0 0.0
2018-Nov-09 06:31N 63°06' E 007°47'0 0.0
2018-Nov-09 06:02N 63°06' E 007°47'0 0.0
2018-Nov-09 05:31N 63°06' E 007°47'0 0.0
2018-Nov-09 05:01N 63°06' E 007°47'0 0.0
2018-Nov-09 04:31N 63°06' E 007°47'0 0.0
2018-Nov-09 04:02N 63°06' E 007°47'0 0.0
2018-Nov-09 03:31N 63°06' E 007°47'0 0.0
2018-Nov-09 03:01N 63°06' E 007°47'0 0.0
2018-Nov-09 02:31N 63°06' E 007°47'0 0.0
2018-Nov-09 02:01N 63°06' E 007°47'0 0.0
2018-Nov-09 01:31N 63°06' E 007°47'0 0.0
2018-Nov-09 01:02N 63°06' E 007°47'0 0.0
2018-Nov-09 00:31N 63°06' E 007°47'0 0.0
2018-Nov-09 00:01N 63°06' E 007°47'0 0.0
2018-Nov-08 23:31N 63°06' E 007°47'0 0.0
2018-Nov-08 23:02N 63°06' E 007°47'0 0.0
2018-Nov-08 22:32N 63°06' E 007°47'0 0.0
2018-Nov-08 22:01N 63°06' E 007°47'0 0.0
2018-Nov-08 21:32N 63°06' E 007°47'0 0.0
2018-Nov-08 21:01N 63°06' E 007°47'0 0.0
2018-Nov-08 20:31N 63°06' E 007°47'0 0.0
2018-Nov-08 20:01N 63°06' E 007°47'0 0.0
2018-Nov-08 19:32N 63°06' E 007°47'0 0.0
2018-Nov-08 19:01N 63°06' E 007°47'0 0.0
2018-Nov-08 18:31N 63°06' E 007°47'0 0.0
2018-Nov-08 18:01N 63°06' E 007°47'0 0.0
2018-Nov-08 17:31N 63°06' E 007°47'0 0.0
2018-Nov-08 17:01N 63°06' E 007°47'0 0.0
2018-Nov-08 16:31N 63°06' E 007°47'0 0.0
2018-Nov-08 16:01N 63°06' E 007°47'0 0.3
2018-Nov-08 15:31N 63°06' E 007°47'0 0.0
2018-Nov-08 15:01N 63°06' E 007°47'0 0.0
2018-Nov-08 14:31N 63°06' E 007°47'0 0.0
2018-Nov-08 14:01N 63°06' E 007°47'0 0.0
2018-Nov-08 13:31N 63°06' E 007°47'0 0.0
2018-Nov-08 13:01N 63°06' E 007°47'0 0.0
2018-Nov-08 12:31N 63°06' E 007°47'0 0.0
2018-Nov-08 12:01N 63°06' E 007°47'0 0.0
2018-Nov-08 11:31N 63°06' E 007°47'0 0.0
2018-Nov-08 11:01N 63°06' E 007°47'0 0.0
2018-Nov-08 10:31N 63°06' E 007°47'0 0.2
2018-Nov-08 10:02N 63°06' E 007°47'2 3.9
2018-Nov-08 09:32N 63°06' E 007°43'4 7.7
2018-Nov-08 09:02N 63°10' E 007°42'4 8.7
2018-Nov-08 08:32N 63°14' E 007°41'510.4
2018-Nov-08 08:02N 63°18' E 007°35'510.9
2018-Nov-08 07:33N 63°24' E 007°34'510.5
2018-Nov-08 07:01N 63°29' E 007°33'5 9.7
2018-Nov-08 06:32N 63°34' E 007°31'5 9.1
2018-Nov-08 06:02N 63°39' E 007°30'4 8.9
2018-Nov-08 05:32N 63°43' E 007°30'5 9.2
2018-Nov-08 05:02N 63°48' E 007°29'510.5
2018-Nov-08 04:32N 63°53' E 007°27'510.7
2018-Nov-08 04:02N 63°58' E 007°25'510.6
2018-Nov-08 03:31N 64°03' E 007°23'510.3
2018-Nov-08 03:00N 64°09' E 007°21'5 9.9
2018-Nov-08 02:29N 64°14' E 007°19'5 9.9
2018-Nov-08 02:00N 64°19' E 007°17'5 9.4
2018-Nov-08 01:29N 64°23' E 007°15'4 9.1
2018-Nov-08 01:01N 64°27' E 007°14'3 9.4
2018-Nov-08 00:40N 64°31' E 007°13'2 9.5
2018-Nov-08 00:30N 64°32' E 007°13'1 9.9
2018-Nov-08 00:25N 64°33' E 007°12'4 9.8
2018-Nov-08 00:00N 64°37' E 007°11'5 9.6
2018-Nov-07 23:28N 64°42' E 007°09'5 9.6
2018-Nov-07 22:59N 64°47' E 007°07'4 9.5
2018-Nov-07 22:32N 64°51' E 007°05'2 4.8
2018-Nov-07 22:02N 64°53' E 007°04'0 0.0
2018-Nov-07 21:29N 64°53' E 007°04'0 0.0
2018-Nov-07 20:58N 64°53' E 007°04'0 0.0
2018-Nov-07 20:23N 64°53' E 007°04'0 0.0
2018-Nov-07 20:01N 64°53' E 007°04'0 0.3
2018-Nov-07 19:32N 64°53' E 007°04'0 0.2
2018-Nov-07 19:01N 64°53' E 007°04'0 0.0
2018-Nov-07 18:32N 64°53' E 007°04'0 0.0
2018-Nov-07 18:02N 64°53' E 007°04'0 0.0
2018-Nov-07 17:32N 64°53' E 007°04'0 0.0
2018-Nov-07 17:02N 64°53' E 007°04'1 1.0
2018-Nov-07 16:32N 64°54' E 007°04'5 9.2
2018-Nov-07 16:02N 64°56' E 006°54'5 9.7
2018-Nov-07 15:32N 64°60' E 006°48'4 8.6
2018-Nov-07 15:02N 65°04' E 006°43'0 0.7
2018-Nov-07 14:32N 65°04' E 006°43'0 0.0
2018-Nov-07 14:02N 65°04' E 006°43'0 0.0
2018-Nov-07 13:32N 65°04' E 006°43'0 0.0
2018-Nov-07 13:02N 65°04' E 006°43'0 0.0
2018-Nov-07 12:32N 65°04' E 006°43'0 0.8
2018-Nov-07 12:02N 65°04' E 006°43'0 0.0
2018-Nov-07 11:32N 65°04' E 006°43'2 3.8
2018-Nov-07 11:01N 65°02' E 006°41'2 4.4
2018-Nov-07 10:31N 64°60' E 006°41'2 4.1
2018-Nov-07 10:02N 64°58' E 006°40'2 4.3
2018-Nov-07 09:31N 64°56' E 006°37'2 4.0
2018-Nov-07 09:01N 64°54' E 006°35'2 4.4
2018-Nov-07 08:32N 64°52' E 006°32'4 8.9
2018-Nov-07 08:02N 64°49' E 006°28'0 0.8
2018-Nov-07 07:30N 64°48' E 006°27'0 0.8
2018-Nov-07 07:02N 64°49' E 006°28'4 8.7
2018-Nov-07 06:31N 64°50' E 006°37'5 9.1
2018-Nov-07 05:59N 64°53' E 006°46'4 9.0
2018-Nov-07 05:31N 64°56' E 006°55'2 3.3
2018-Nov-07 05:01N 64°57' E 006°57'0 0.0
2018-Nov-07 04:28N 64°57' E 006°57'43 8.6
2018-Nov-06 23:29N 64°15' E 007°19'511.1
2018-Nov-06 23:02N 64°10' E 007°22'010.9
2018-Nov-06 23:00N 64°10' E 007°22'1010.3
2018-Nov-06 22:00N 63°60' E 007°26'510.2
2018-Nov-06 21:29N 63°54' E 007°26'510.1
2018-Nov-06 20:59N 63°49' E 007°27'5 9.9
2018-Nov-06 20:30N 63°45' E 007°28'510.1
2018-Nov-06 19:58N 63°39' E 007°31'510.2
2018-Nov-06 19:30N 63°35' E 007°33'4 9.4
2018-Nov-06 19:01N 63°30' E 007°34'010.2
2018-Nov-06 19:00N 63°30' E 007°34'510.1
2018-Nov-06 18:30N 63°25' E 007°35'4 9.8
2018-Nov-06 18:03N 63°21' E 007°36'0 9.7
2018-Nov-06 18:00N 63°20' E 007°36'5 9.4
2018-Nov-06 17:30N 63°16' E 007°39'4 9.7
2018-Nov-06 17:03N 63°12' E 007°45'110.4
2018-Nov-06 17:00N 63°12' E 007°45'510.3
2018-Nov-06 16:30N 63°07' E 007°41'3 6.6
2018-Nov-06 16:03N 63°06' E 007°47'0 0.0
2018-Nov-06 16:00N 63°06' E 007°47'0 0.0
2018-Nov-06 15:30N 63°06' E 007°47'0 0.0
2018-Nov-06 15:03N 63°06' E 007°47'0 0.0
2018-Nov-06 15:00N 63°06' E 007°47'0 0.0
2018-Nov-06 14:30N 63°06' E 007°47'0 0.0
2018-Nov-06 14:03N 63°06' E 007°47'0 0.0
2018-Nov-06 14:00N 63°06' E 007°47'0 0.0
2018-Nov-06 13:30N 63°06' E 007°47'0 0.0
2018-Nov-06 13:03N 63°06' E 007°47'0 0.0
2018-Nov-06 12:57N 63°06' E 007°47'0 0.0
2018-Nov-06 12:30N 63°06' E 007°47'0 0.0
2018-Nov-06 12:03N 63°06' E 007°47'0 0.0
2018-Nov-06 12:00N 63°06' E 007°47'0 0.0
2018-Nov-06 11:30N 63°06' E 007°47'0 0.0
2018-Nov-06 11:03N 63°06' E 007°47'0 0.0
2018-Nov-06 11:00N 63°06' E 007°47'0 0.0
2018-Nov-06 10:30N 63°06' E 007°47'0 0.0
2018-Nov-06 10:03N 63°06' E 007°47'0 0.0
2018-Nov-06 10:00N 63°06' E 007°47'0 0.0
2018-Nov-06 09:30N 63°06' E 007°47'0 0.0
2018-Nov-06 09:03N 63°06' E 007°47'0 0.0
2018-Nov-06 09:00N 63°06' E 007°47'0 0.0
2018-Nov-06 08:30N 63°06' E 007°47'0 0.0
2018-Nov-06 08:03N 63°06' E 007°47'0 0.0
2018-Nov-06 08:00N 63°06' E 007°47'0 0.0
2018-Nov-06 07:30N 63°06' E 007°47'0 0.0
2018-Nov-06 07:03N 63°06' E 007°47'0 0.0
2018-Nov-06 07:00N 63°06' E 007°47'0 0.0
2018-Nov-06 06:30N 63°06' E 007°47'0 0.0
2018-Nov-06 06:03N 63°06' E 007°47'0 0.0
2018-Nov-06 06:00N 63°06' E 007°47'0 0.0
2018-Nov-06 05:30N 63°06' E 007°47'0 0.0
2018-Nov-06 05:03N 63°06' E 007°47'0 0.0
2018-Nov-06 05:00N 63°06' E 007°47'0 0.0
2018-Nov-06 04:30N 63°06' E 007°47'0 0.0
2018-Nov-06 04:03N 63°06' E 007°47'0 0.0
2018-Nov-06 04:00N 63°06' E 007°47'0 0.0
2018-Nov-06 03:30N 63°06' E 007°47'0 0.0
2018-Nov-06 03:03N 63°06' E 007°47'0 0.0
2018-Nov-06 03:00N 63°06' E 007°47'0 0.0
2018-Nov-06 02:30N 63°06' E 007°47'0 0.0
2018-Nov-06 02:03N 63°06' E 007°47'0 0.0
2018-Nov-06 01:58N 63°06' E 007°47'0 0.0
2018-Nov-06 01:30N 63°06' E 007°47'0 0.0
2018-Nov-06 00:30N 63°06' E 007°47'0 0.0
2018-Nov-05 23:30N 63°06' E 007°47'0 0.0
2018-Nov-05 23:03N 63°06' E 007°47'0 0.0
2018-Nov-05 23:01N 63°06' E 007°47'0 0.0
2018-Nov-05 22:30N 63°06' E 007°47'0 0.0
2018-Nov-05 22:03N 63°06' E 007°47'0 0.0
2018-Nov-05 22:00N 63°06' E 007°47'0 0.0
2018-Nov-05 21:30N 63°06' E 007°47'0 0.0
2018-Nov-05 21:03N 63°06' E 007°47'0 0.0
2018-Nov-05 21:00N 63°06' E 007°47'0 0.0
2018-Nov-05 20:30N 63°06' E 007°47'0 0.0
2018-Nov-05 20:03N 63°06' E 007°47'0 0.0
2018-Nov-05 20:00N 63°06' E 007°47'0 0.0
2018-Nov-05 19:30N 63°06' E 007°47'0 0.0
2018-Nov-05 19:03N 63°06' E 007°47'0 0.0
2018-Nov-05 18:57N 63°06' E 007°47'0 0.0
2018-Nov-05 18:30N 63°06' E 007°47'0 0.7
2018-Nov-05 18:03N 63°06' E 007°48'0 0.0
2018-Nov-05 18:00N 63°06' E 007°48'0 0.0
2018-Nov-05 17:30N 63°06' E 007°48'0 0.0
2018-Nov-05 17:03N 63°06' E 007°48'0 0.0
2018-Nov-05 17:00N 63°06' E 007°48'0 0.0
2018-Nov-05 16:30N 63°06' E 007°48'0 0.0
2018-Nov-05 16:03N 63°06' E 007°48'0 0.0
2018-Nov-05 16:00N 63°06' E 007°48'0 0.0
2018-Nov-05 15:30N 63°06' E 007°48'0 0.0
2018-Nov-05 15:03N 63°06' E 007°48'0 0.0
2018-Nov-05 15:00N 63°06' E 007°48'0 0.0
2018-Nov-05 14:30N 63°06' E 007°48'0 0.9
2018-Nov-05 14:00N 63°06' E 007°47'0 0.0
2018-Nov-05 13:27N 63°06' E 007°47'0 0.0
2018-Nov-05 13:00N 63°06' E 007°47'0 0.0
2018-Nov-05 12:30N 63°06' E 007°47'0 0.0
2018-Nov-05 12:00N 63°06' E 007°47'0 0.0
2018-Nov-05 11:30N 63°06' E 007°47'0 0.0
2018-Nov-05 11:03N 63°06' E 007°47'0 0.0
2018-Nov-05 10:57N 63°06' E 007°47'0 0.0
2018-Nov-05 10:30N 63°06' E 007°47'0 0.0
2018-Nov-05 10:03N 63°06' E 007°47'0 0.0
2018-Nov-05 10:00N 63°06' E 007°47'0 0.0
2018-Nov-05 09:30N 63°06' E 007°47'0 0.0
2018-Nov-05 09:03N 63°06' E 007°47'0 0.0
2018-Nov-05 09:00N 63°06' E 007°47'0 0.0
2018-Nov-05 08:30N 63°06' E 007°47'0 0.0
2018-Nov-05 08:03N 63°06' E 007°47'0 0.0
2018-Nov-05 08:00N 63°06' E 007°47'0 0.0
2018-Nov-05 07:27N 63°06' E 007°47'0 0.0
2018-Nov-05 07:03N 63°06' E 007°47'0 0.0
2018-Nov-05 07:00N 63°06' E 007°47'0 0.0
2018-Nov-05 06:30N 63°06' E 007°47'0 0.0
2018-Nov-05 06:03N 63°06' E 007°47'0 0.0
2018-Nov-05 06:00N 63°06' E 007°47'0 0.0
2018-Nov-05 05:30N 63°06' E 007°47'0 0.0
2018-Nov-05 05:03N 63°06' E 007°47'0 0.0
2018-Nov-05 05:00N 63°06' E 007°47'0 0.0
2018-Nov-05 04:30N 63°06' E 007°47'0 0.0
2018-Nov-05 04:03N 63°06' E 007°47'0 0.0
2018-Nov-05 04:00N 63°06' E 007°47'0 0.0
2018-Nov-05 03:30N 63°06' E 007°47'0 0.0
2018-Nov-05 03:03N 63°06' E 007°47'0 0.0
2018-Nov-05 03:00N 63°06' E 007°47'0 0.0
2018-Nov-05 02:30N 63°06' E 007°47'0 0.0
2018-Nov-05 02:03N 63°06' E 007°47'0 0.0
2018-Nov-05 02:00N 63°06' E 007°47'0 0.0
2018-Nov-05 01:30N 63°06' E 007°47'0 0.0
2018-Nov-05 01:03N 63°06' E 007°47'0 0.0
2018-Nov-05 01:00N 63°06' E 007°47'0 0.0
2018-Nov-05 00:30N 63°06' E 007°47'0 0.0
2018-Nov-05 00:03N 63°06' E 007°47'0 0.0
2018-Nov-05 00:00N 63°06' E 007°47'0 0.0
2018-Nov-04 23:30N 63°06' E 007°47'0 0.0
2018-Nov-04 23:03N 63°06' E 007°47'0 0.0
2018-Nov-04 23:00N 63°06' E 007°47'0 0.0
2018-Nov-04 22:30N 63°06' E 007°47'0 0.0
2018-Nov-04 22:03N 63°06' E 007°47'0 0.0
2018-Nov-04 22:00N 63°06' E 007°47'0 0.0
2018-Nov-04 21:30N 63°06' E 007°47'0 0.0
2018-Nov-04 21:03N 63°06' E 007°47'0 0.0
2018-Nov-04 21:00N 63°06' E 007°47'0 0.0
2018-Nov-04 20:30N 63°06' E 007°47'0 0.0
2018-Nov-04 20:03N 63°06' E 007°47'0 0.0
2018-Nov-04 20:00N 63°06' E 007°47'0 0.0
2018-Nov-04 19:27N 63°06' E 007°47'0 0.0
2018-Nov-04 19:03N 63°06' E 007°47'0 0.0
2018-Nov-04 18:57N 63°06' E 007°47'0 0.0
2018-Nov-04 18:30N 63°06' E 007°47'0 0.0
2018-Nov-04 18:03N 63°06' E 007°47'0 0.0
2018-Nov-04 18:00N 63°06' E 007°47'0 0.0
2018-Nov-04 17:30N 63°06' E 007°47'0 0.0
2018-Nov-04 17:00N 63°06' E 007°47'0 0.0
2018-Nov-04 16:30N 63°06' E 007°47'0 0.0
2018-Nov-04 16:03N 63°06' E 007°47'0 0.0
2018-Nov-04 16:00N 63°06' E 007°47'0 0.0
2018-Nov-04 15:30N 63°06' E 007°47'0 0.0
2018-Nov-04 15:03N 63°06' E 007°47'0 0.0
2018-Nov-04 14:58N 63°06' E 007°47'0 0.9
2018-Nov-04 14:28N 63°06' E 007°48'0 0.0
2018-Nov-04 14:01N 63°06' E 007°48'0 0.0
2018-Nov-04 13:58N 63°06' E 007°48'0 0.0
2018-Nov-04 13:28N 63°06' E 007°48'0 0.0
2018-Nov-04 13:01N 63°06' E 007°48'0 0.0
2018-Nov-04 12:58N 63°06' E 007°48'0 0.0
2018-Nov-04 12:28N 63°06' E 007°48'0 0.0
2018-Nov-04 12:01N 63°06' E 007°48'0 0.0
2018-Nov-04 11:58N 63°06' E 007°48'0 0.0
2018-Nov-04 11:28N 63°06' E 007°48'0 0.0
2018-Nov-04 11:01N 63°06' E 007°48'0 0.0
2018-Nov-04 10:58N 63°06' E 007°48'0 0.0
2018-Nov-04 10:28N 63°06' E 007°48'0 0.0
2018-Nov-04 10:01N 63°06' E 007°48'0 0.0
2018-Nov-04 09:58N 63°06' E 007°48'0 0.0
2018-Nov-04 09:28N 63°06' E 007°48'0 0.0
2018-Nov-04 09:01N 63°06' E 007°48'0 0.0
2018-Nov-04 08:58N 63°06' E 007°48'0 0.0
2018-Nov-04 08:28N 63°06' E 007°48'0 0.0
2018-Nov-04 08:01N 63°06' E 007°48'0 0.0
2018-Nov-04 07:58N 63°06' E 007°48'0 0.0
2018-Nov-04 07:28N 63°06' E 007°48'0 0.0
2018-Nov-04 07:01N 63°06' E 007°48'0 0.0
2018-Nov-04 06:58N 63°06' E 007°48'0 0.0
2018-Nov-04 06:28N 63°06' E 007°48'0 0.0
2018-Nov-04 06:01N 63°06' E 007°48'0 0.0
2018-Nov-04 05:58N 63°06' E 007°48'0 0.0
2018-Nov-04 05:28N 63°06' E 007°48'0 0.0
2018-Nov-04 05:01N 63°06' E 007°48'0 0.0
2018-Nov-04 04:58N 63°06' E 007°48'0 0.0
2018-Nov-04 04:28N 63°06' E 007°48'0 0.0
2018-Nov-04 04:01N 63°06' E 007°48'0 0.0
2018-Nov-04 03:58N 63°06' E 007°48'0 0.0
2018-Nov-04 03:28N 63°06' E 007°48'0 0.0
2018-Nov-04 03:01N 63°06' E 007°48'0 0.0
2018-Nov-04 02:58N 63°06' E 007°48'0 0.0
2018-Nov-04 02:28N 63°06' E 007°48'0 0.0
2018-Nov-04 02:01N 63°06' E 007°48'0 0.0
2018-Nov-04 01:58N 63°06' E 007°48'0 0.0
2018-Nov-04 01:28N 63°06' E 007°48'0 0.0
2018-Nov-04 01:01N 63°06' E 007°48'0 0.0
2018-Nov-04 00:58N 63°06' E 007°48'0 0.0
2018-Nov-04 00:28N 63°06' E 007°48'0 0.0
2018-Nov-04 00:01N 63°06' E 007°48'0 0.0
2018-Nov-03 23:58N 63°06' E 007°48'0 0.0
2018-Nov-03 23:28N 63°06' E 007°48'0 0.0
2018-Nov-03 23:01N 63°06' E 007°48'0 0.0
2018-Nov-03 22:58N 63°06' E 007°48'0 0.0
2018-Nov-03 22:28N 63°06' E 007°48'0 0.0
2018-Nov-03 20:28N 63°06' E 007°48'0 0.0
2018-Nov-03 20:01N 63°06' E 007°48'0 0.1
2018-Nov-03 19:58N 63°06' E 007°48'0 0.0
2018-Nov-03 19:28N 63°06' E 007°48'0 0.0
2018-Nov-03 19:01N 63°06' E 007°48'0 0.0
2018-Nov-03 18:58N 63°06' E 007°48'0 0.0
2018-Nov-03 18:28N 63°06' E 007°48'0 0.0
2018-Nov-03 18:01N 63°06' E 007°48'0 0.0
2018-Nov-03 17:58N 63°06' E 007°48'0 0.0
2018-Nov-03 17:28N 63°06' E 007°48'0 0.0
2018-Nov-03 17:01N 63°06' E 007°48'0 0.0
2018-Nov-03 16:58N 63°06' E 007°48'0 0.0
2018-Nov-03 16:28N 63°06' E 007°48'0 0.8
2018-Nov-03 16:03N 63°06' E 007°47'0 0.0
2018-Nov-03 16:00N 63°06' E 007°47'0 0.0
2018-Nov-03 15:30N 63°06' E 007°47'0 0.0
2018-Nov-03 15:03N 63°06' E 007°47'0 0.0
2018-Nov-03 15:00N 63°06' E 007°47'0 0.0
2018-Nov-03 14:30N 63°06' E 007°47'0 0.0
2018-Nov-03 14:03N 63°06' E 007°47'0 0.0
2018-Nov-03 14:00N 63°06' E 007°47'0 0.0
2018-Nov-03 13:30N 63°06' E 007°47'0 0.0
2018-Nov-03 13:03N 63°06' E 007°47'0 0.0
2018-Nov-03 13:00N 63°06' E 007°47'0 0.0
2018-Nov-03 12:30N 63°06' E 007°47'0 0.5
2018-Nov-03 12:04N 63°06' E 007°47'0 4.4
2018-Nov-03 12:00N 63°06' E 007°46'3 6.6
2018-Nov-03 11:30N 63°08' E 007°41'4 9.3
2018-Nov-03 11:03N 63°12' E 007°45'0 8.7
2018-Nov-03 11:00N 63°13' E 007°44'5 9.2
2018-Nov-03 10:31N 63°15' E 007°36'4 8.6
2018-Nov-03 10:03N 63°19' E 007°36'0 8.5
2018-Nov-03 10:01N 63°20' E 007°36'4 8.3
2018-Nov-03 09:30N 63°24' E 007°35'4 8.1
2018-Nov-03 09:03N 63°28' E 007°34'0 8.7
2018-Nov-03 09:00N 63°28' E 007°34'4 8.1
2018-Nov-03 08:30N 63°32' E 007°33'4 8.3
2018-Nov-03 08:03N 63°36' E 007°33'0 8.6
2018-Nov-03 08:00N 63°36' E 007°33'4 8.6
2018-Nov-03 07:30N 63°41' E 007°31'4 8.7
2018-Nov-03 07:03N 63°44' E 007°30'0 8.9
2018-Nov-03 07:00N 63°45' E 007°30'5 9.0
2018-Nov-03 06:30N 63°49' E 007°29'4 8.7
2018-Nov-03 06:03N 63°53' E 007°29'1 8.7
2018-Nov-03 05:59N 63°54' E 007°29'4 8.7
2018-Nov-03 05:30N 63°58' E 007°28'4 8.6
2018-Nov-03 05:03N 64°02' E 007°27'0 9.9
2018-Nov-03 05:00N 64°02' E 007°27'611.5
2018-Nov-03 04:30N 64°08' E 007°25'612.3
2018-Nov-03 04:03N 64°14' E 007°23'112.5
2018-Nov-03 04:00N 64°14' E 007°22'612.4
2018-Nov-03 03:30N 64°20' E 007°20'612.5
2018-Nov-03 03:03N 64°26' E 007°18'112.7
2018-Nov-03 03:00N 64°26' E 007°18'712.4
2018-Nov-03 02:28N 64°33' E 007°15'25 1.2
2018-Nov-02 06:11N 64°52' E 006°36'112.4
2018-Nov-02 06:04N 64°51' E 006°37'112.5
2018-Nov-02 05:58N 64°50' E 006°38'612.5
2018-Nov-02 05:30N 64°44' E 006°42'612.2
2018-Nov-02 05:03N 64°39' E 006°45'112.6
2018-Nov-02 05:00N 64°38' E 006°45'612.3
2018-Nov-02 04:31N 64°32' E 006°48'612.6
2018-Nov-02 04:03N 64°27' E 006°51'112.8
2018-Nov-02 04:00N 64°26' E 006°52'612.7
2018-Nov-02 03:31N 64°20' E 006°56'612.3
2018-Nov-02 03:03N 64°15' E 006°60'112.3
2018-Nov-02 03:00N 64°14' E 007°00'612.0
2018-Nov-02 02:30N 64°08' E 007°04'612.5
2018-Nov-02 02:03N 64°03' E 007°07'012.9
2018-Nov-02 02:00N 64°02' E 007°08'713.2
2018-Nov-02 01:30N 63°56' E 007°12'613.2
2018-Nov-02 01:03N 63°50' E 007°16'113.0
2018-Nov-02 01:00N 63°49' E 007°16'113.0
2018-Nov-02 00:56N 63°49' E 007°17'412.3
2018-Nov-02 00:35N 63°45' E 007°20'111.5
2018-Nov-02 00:30N 63°44' E 007°20'512.2
2018-Nov-02 00:03N 63°38' E 007°24'112.4
2018-Nov-02 00:00N 63°38' E 007°24'612.8
2018-Nov-01 23:31N 63°32' E 007°28'613.1
2018-Nov-01 23:03N 63°26' E 007°31'113.2
2018-Nov-01 23:00N 63°25' E 007°32'713.3
2018-Nov-01 22:30N 63°19' E 007°36'612.8
2018-Nov-01 22:03N 63°14' E 007°43'113.0
2018-Nov-01 22:00N 63°13' E 007°44'611.6
2018-Nov-01 21:31N 63°08' E 007°41'3 7.4
2018-Nov-01 21:03N 63°06' E 007°48'0 0.9
2018-Nov-01 21:01N 63°06' E 007°48'0 0.0
2018-Nov-01 20:30N 63°06' E 007°48'0 0.0
2018-Nov-01 20:03N 63°06' E 007°48'0 0.0
2018-Nov-01 20:00N 63°06' E 007°48'0 0.0
2018-Nov-01 19:30N 63°06' E 007°48'0 0.0
2018-Nov-01 19:03N 63°06' E 007°48'0 0.0
2018-Nov-01 19:00N 63°06' E 007°48'0 0.0
2018-Nov-01 18:30N 63°06' E 007°48'0 0.0
2018-Nov-01 18:03N 63°06' E 007°48'0 0.0
2018-Nov-01 18:00N 63°06' E 007°48'0 0.4
2018-Nov-01 17:30N 63°06' E 007°47'0 0.3
2018-Nov-01 17:03N 63°06' E 007°47'0 0.0
2018-Nov-01 17:00N 63°06' E 007°47'0 0.0
2018-Nov-01 16:30N 63°06' E 007°47'0 0.0
2018-Nov-01 16:03N 63°06' E 007°47'0 0.0
2018-Nov-01 16:00N 63°06' E 007°47'0 0.0
2018-Nov-01 15:30N 63°06' E 007°47'0 0.0
2018-Nov-01 15:03N 63°06' E 007°47'0 0.0
2018-Nov-01 14:57N 63°06' E 007°47'0 0.0
2018-Nov-01 14:30N 63°06' E 007°47'0 0.0
2018-Nov-01 14:00N 63°06' E 007°47'0 0.0
2018-Nov-01 13:30N 63°06' E 007°47'0 0.0
2018-Nov-01 13:03N 63°06' E 007°47'0 0.0
2018-Nov-01 13:00N 63°06' E 007°47'0 0.0
2018-Nov-01 12:30N 63°06' E 007°47'0 0.0
2018-Nov-01 12:03N 63°06' E 007°47'0 0.0
2018-Nov-01 12:00N 63°06' E 007°47'0 0.0
2018-Nov-01 11:30N 63°06' E 007°47'0 0.0
2018-Nov-01 11:03N 63°06' E 007°47'0 0.0
2018-Nov-01 11:00N 63°06' E 007°47'0 0.0
2018-Nov-01 10:30N 63°06' E 007°47'0 0.0
2018-Nov-01 10:03N 63°06' E 007°47'0 0.0
2018-Nov-01 10:00N 63°06' E 007°47'0 0.0
2018-Nov-01 09:30N 63°06' E 007°47'0 0.0
2018-Nov-01 09:03N 63°06' E 007°47'0 0.0
2018-Nov-01 09:00N 63°06' E 007°47'0 0.0
2018-Nov-01 08:27N 63°06' E 007°47'0 0.0
2018-Nov-01 08:03N 63°06' E 007°47'0 0.6
2018-Nov-01 08:00N 63°06' E 007°47'3 5.9
2018-Nov-01 07:30N 63°07' E 007°41'4 9.7
2018-Nov-01 07:03N 63°10' E 007°47'110.6
2018-Nov-01 07:00N 63°11' E 007°47'510.4
2018-Nov-01 06:30N 63°13' E 007°57'4 9.9
2018-Nov-01 06:03N 63°16' E 008°05'0 9.5
2018-Nov-01 06:00N 63°16' E 008°06'5 9.5
2018-Nov-01 05:30N 63°19' E 008°15'4 8.7
2018-Nov-01 05:03N 63°22' E 008°18'1 9.8
2018-Nov-01 05:00N 63°23' E 008°17'4 8.9
2018-Nov-01 04:30N 63°27' E 008°14'4 9.1
2018-Nov-01 04:03N 63°31' E 008°11'0 8.8
2018-Nov-01 04:00N 63°31' E 008°10'5 9.8
2018-Nov-01 03:30N 63°36' E 008°05'511.5
2018-Nov-01 03:03N 63°40' E 007°58'111.3
2018-Nov-01 03:00N 63°40' E 007°57'  
Track history (hours):
 
Tides and Currents Weather Stations Pressure Air Temp Water Temp Dewpoint Dewpoint Depression Visibility Wind Speed Wind Dir Waves Ship Positions

TrOMS Arcturus

Last reported at 2018-Nov-11 02:32 UTC. Time now 2018-Nov-13 06:37 UTC.
Position N 64°26' E 007°39'.

Length 95 m; draft 5.9 m.

Type: Cargo ship. MMSI: 257131000.

Date/timePositionNaut miles runAvg speedWind from/ knotsBaromVisibWave heightAir tempDewpointWater temp
2018-Nov-11 02:32N 64°26' E 007°39'4 8.8
2018-Nov-11 02:02N 64°22' E 007°44'2 3.1
2018-Nov-11 01:32N 64°21' E 007°47'0 0.0
2018-Nov-11 01:02N 64°21' E 007°47'0 0.0
2018-Nov-11 00:31N 64°21' E 007°47'0 0.0
2018-Nov-11 00:02N 64°21' E 007°47'0 0.7
2018-Nov-10 23:32N 64°21' E 007°46'3 6.6
2018-Nov-10 23:02N 64°18' E 007°43'4 7.9
2018-Nov-10 22:32N 64°14' E 007°41'4 7.2
2018-Nov-10 22:02N 64°11' E 007°40'4 8.0
2018-Nov-10 21:32N 64°07' E 007°40'4 8.4
2018-Nov-10 21:01N 64°02' E 007°40'4 9.0
2018-Nov-10 20:32N 63°58' E 007°39'5 9.3
2018-Nov-10 20:02N 63°53' E 007°40'5 9.9
2018-Nov-10 19:32N 63°48' E 007°40'510.2
2018-Nov-10 19:02N 63°43' E 007°38'510.2
2018-Nov-10 18:32N 63°38' E 007°38'510.3
2018-Nov-10 18:02N 63°33' E 007°37'510.8
2018-Nov-10 17:32N 63°28' E 007°37'611.4
2018-Nov-10 17:02N 63°22' E 007°37'510.6
2018-Nov-10 16:32N 63°17' E 007°37'510.4
2018-Nov-10 16:02N 63°13' E 007°44'5 9.4
2018-Nov-10 15:32N 63°08' E 007°41'3 6.6
2018-Nov-10 15:02N 63°06' E 007°47'0 0.1
2018-Nov-10 14:32N 63°06' E 007°47'0 0.0
2018-Nov-10 14:02N 63°06' E 007°47'0 0.0
2018-Nov-10 13:32N 63°06' E 007°47'0 0.0
2018-Nov-10 13:02N 63°06' E 007°47'0 0.0
2018-Nov-10 12:32N 63°06' E 007°47'0 0.0
2018-Nov-10 12:02N 63°06' E 007°47'0 0.0
2018-Nov-10 11:32N 63°06' E 007°47'0 0.0
2018-Nov-10 11:02N 63°06' E 007°47'0 0.0
2018-Nov-10 10:32N 63°06' E 007°47'0 0.0
2018-Nov-10 10:02N 63°06' E 007°47'0 0.0
2018-Nov-10 09:32N 63°06' E 007°47'0 0.0
2018-Nov-10 09:02N 63°06' E 007°47'0 0.0
2018-Nov-10 08:32N 63°06' E 007°47'0 0.0
2018-Nov-10 08:02N 63°06' E 007°47'0 0.0
2018-Nov-10 07:32N 63°06' E 007°47'0 0.0
2018-Nov-10 07:02N 63°06' E 007°47'0 0.0
2018-Nov-10 06:32N 63°06' E 007°47'0 0.0
2018-Nov-10 06:02N 63°06' E 007°47'0 0.0
2018-Nov-10 05:32N 63°06' E 007°47'0 0.0
2018-Nov-10 05:02N 63°06' E 007°47'0 0.0
2018-Nov-10 04:32N 63°06' E 007°47'0 0.0
2018-Nov-10 04:02N 63°06' E 007°47'0 0.0
2018-Nov-10 03:32N 63°06' E 007°47'0 0.0
2018-Nov-10 03:02N 63°06' E 007°47'0 0.0
2018-Nov-10 02:32N 63°06' E 007°47'0 0.0
2018-Nov-10 02:02N 63°06' E 007°47'0 0.0
2018-Nov-10 01:32N 63°06' E 007°47'0 0.0
2018-Nov-10 01:02N 63°06' E 007°47'0 0.0
2018-Nov-10 00:32N 63°06' E 007°47'0 0.0
2018-Nov-10 00:02N 63°06' E 007°47'0 0.0
2018-Nov-09 23:32N 63°06' E 007°47'0 0.0
2018-Nov-09 23:02N 63°06' E 007°47'0 0.0
2018-Nov-09 22:32N 63°06' E 007°47'0 0.0
2018-Nov-09 22:02N 63°06' E 007°47'0 0.0
2018-Nov-09 21:32N 63°06' E 007°47'0 0.0
2018-Nov-09 20:59N 63°06' E 007°47'0 0.0
2018-Nov-09 20:32N 63°06' E 007°47'0 0.0
2018-Nov-09 20:02N 63°06' E 007°47'0 0.0
2018-Nov-09 19:32N 63°06' E 007°47'0 0.0
2018-Nov-09 19:02N 63°06' E 007°47'0 0.0
2018-Nov-09 18:32N 63°06' E 007°47'0 0.0
2018-Nov-09 18:02N 63°06' E 007°47'0 0.0
2018-Nov-09 17:32N 63°06' E 007°47'0 0.0
2018-Nov-09 17:02N 63°06' E 007°47'0 0.0
2018-Nov-09 16:32N 63°06' E 007°47'0 0.0
2018-Nov-09 16:02N 63°06' E 007°47'0 0.0
2018-Nov-09 15:32N 63°06' E 007°47'0 0.0
2018-Nov-09 15:02N 63°06' E 007°47'0 0.0
2018-Nov-09 14:32N 63°06' E 007°47'0 0.0
2018-Nov-09 14:02N 63°06' E 007°47'0 0.0
2018-Nov-09 13:32N 63°06' E 007°47'0 0.0
2018-Nov-09 13:02N 63°06' E 007°47'0 0.0
2018-Nov-09 12:32N 63°06' E 007°47'0 0.0
2018-Nov-09 12:01N 63°06' E 007°47'0 0.0
2018-Nov-09 11:32N 63°06' E 007°47'0 0.0
2018-Nov-09 11:02N 63°06' E 007°47'0 0.0
2018-Nov-09 10:32N 63°06' E 007°47'0 0.0
2018-Nov-09 10:02N 63°06' E 007°47'0 0.0
2018-Nov-09 09:32N 63°06' E 007°47'0 0.0
2018-Nov-09 09:02N 63°06' E 007°47'0 0.0
2018-Nov-09 08:31N 63°06' E 007°47'0 0.0
2018-Nov-09 08:01N 63°06' E 007°47'0 0.0
2018-Nov-09 07:32N 63°06' E 007°47'0 0.0
2018-Nov-09 07:01N 63°06' E 007°47'0 0.0
2018-Nov-09 06:31N 63°06' E 007°47'0 0.0
2018-Nov-09 06:02N 63°06' E 007°47'0 0.0
2018-Nov-09 05:31N 63°06' E 007°47'0 0.0
2018-Nov-09 05:01N 63°06' E 007°47'0 0.0
2018-Nov-09 04:31N 63°06' E 007°47'0 0.0
2018-Nov-09 04:02N 63°06' E 007°47'0 0.0
2018-Nov-09 03:31N 63°06' E 007°47'0 0.0
2018-Nov-09 03:01N 63°06' E 007°47'0 0.0
2018-Nov-09 02:31N 63°06' E 007°47'0 0.0
2018-Nov-09 02:01N 63°06' E 007°47'0 0.0
2018-Nov-09 01:31N 63°06' E 007°47'0 0.0
2018-Nov-09 01:02N 63°06' E 007°47'0 0.0
2018-Nov-09 00:31N 63°06' E 007°47'0 0.0
2018-Nov-09 00:01N 63°06' E 007°47'0 0.0
2018-Nov-08 23:31N 63°06' E 007°47'0 0.0
2018-Nov-08 23:02N 63°06' E 007°47'0 0.0
2018-Nov-08 22:32N 63°06' E 007°47'0 0.0
2018-Nov-08 22:01N 63°06' E 007°47'0 0.0
2018-Nov-08 21:32N 63°06' E 007°47'0 0.0
2018-Nov-08 21:01N 63°06' E 007°47'0 0.0
2018-Nov-08 20:31N 63°06' E 007°47'0 0.0
2018-Nov-08 20:01N 63°06' E 007°47'0 0.0
2018-Nov-08 19:32N 63°06' E 007°47'0 0.0
2018-Nov-08 19:01N 63°06' E 007°47'0 0.0
2018-Nov-08 18:31N 63°06' E 007°47'0 0.0
2018-Nov-08 18:01N 63°06' E 007°47'0 0.0
2018-Nov-08 17:31N 63°06' E 007°47'0 0.0
2018-Nov-08 17:01N 63°06' E 007°47'0 0.0
2018-Nov-08 16:31N 63°06' E 007°47'0 0.0
2018-Nov-08 16:01N 63°06' E 007°47'0 0.3
2018-Nov-08 15:31N 63°06' E 007°47'0 0.0
2018-Nov-08 15:01N 63°06' E 007°47'0 0.0
2018-Nov-08 14:31N 63°06' E 007°47'0 0.0
2018-Nov-08 14:01N 63°06' E 007°47'0 0.0
2018-Nov-08 13:31N 63°06' E 007°47'0 0.0
2018-Nov-08 13:01N 63°06' E 007°47'0 0.0
2018-Nov-08 12:31N 63°06' E 007°47'0 0.0
2018-Nov-08 12:01N 63°06' E 007°47'0 0.0
2018-Nov-08 11:31N 63°06' E 007°47'0 0.0
2018-Nov-08 11:01N 63°06' E 007°47'0 0.0
2018-Nov-08 10:31N 63°06' E 007°47'0 0.2
2018-Nov-08 10:02N 63°06' E 007°47'2 3.9
2018-Nov-08 09:32N 63°06' E 007°43'4 7.7
2018-Nov-08 09:02N 63°10' E 007°42'4 8.7
2018-Nov-08 08:32N 63°14' E 007°41'510.4
2018-Nov-08 08:02N 63°18' E 007°35'510.9
2018-Nov-08 07:33N 63°24' E 007°34'510.5
2018-Nov-08 07:01N 63°29' E 007°33'5 9.7
2018-Nov-08 06:32N 63°34' E 007°31'5 9.1
2018-Nov-08 06:02N 63°39' E 007°30'4 8.9
2018-Nov-08 05:32N 63°43' E 007°30'5 9.2
2018-Nov-08 05:02N 63°48' E 007°29'510.5
2018-Nov-08 04:32N 63°53' E 007°27'510.7
2018-Nov-08 04:02N 63°58' E 007°25'510.6
2018-Nov-08 03:31N 64°03' E 007°23'510.3
2018-Nov-08 03:00N 64°09' E 007°21'5 9.9
2018-Nov-08 02:29N 64°14' E 007°19'5 9.9
2018-Nov-08 02:00N 64°19' E 007°17'5 9.4
2018-Nov-08 01:29N 64°23' E 007°15'4 9.1
2018-Nov-08 01:01N 64°27' E 007°14'3 9.4
2018-Nov-08 00:40N 64°31' E 007°13'2 9.5
2018-Nov-08 00:30N 64°32' E 007°13'1 9.9
2018-Nov-08 00:25N 64°33' E 007°12'4 9.8
2018-Nov-08 00:00N 64°37' E 007°11'5 9.6
2018-Nov-07 23:28N 64°42' E 007°09'5 9.6
2018-Nov-07 22:59N 64°47' E 007°07'4 9.5
2018-Nov-07 22:32N 64°51' E 007°05'2 4.8
2018-Nov-07 22:02N 64°53' E 007°04'0 0.0
2018-Nov-07 21:29N 64°53' E 007°04'0 0.0
2018-Nov-07 20:58N 64°53' E 007°04'0 0.0
2018-Nov-07 20:23N 64°53' E 007°04'0 0.0
2018-Nov-07 20:01N 64°53' E 007°04'0 0.3
2018-Nov-07 19:32N 64°53' E 007°04'0 0.2
2018-Nov-07 19:01N 64°53' E 007°04'0 0.0
2018-Nov-07 18:32N 64°53' E 007°04'0 0.0
2018-Nov-07 18:02N 64°53' E 007°04'0 0.0
2018-Nov-07 17:32N 64°53' E 007°04'0 0.0
2018-Nov-07 17:02N 64°53' E 007°04'1 1.0
2018-Nov-07 16:32N 64°54' E 007°04'5 9.2
2018-Nov-07 16:02N 64°56' E 006°54'5 9.7
2018-Nov-07 15:32N 64°60' E 006°48'4 8.6
2018-Nov-07 15:02N 65°04' E 006°43'0 0.7
2018-Nov-07 14:32N 65°04' E 006°43'0 0.0
2018-Nov-07 14:02N 65°04' E 006°43'0 0.0
2018-Nov-07 13:32N 65°04' E 006°43'0 0.0
2018-Nov-07 13:02N 65°04' E 006°43'0 0.0
2018-Nov-07 12:32N 65°04' E 006°43'0 0.8
2018-Nov-07 12:02N 65°04' E 006°43'0 0.0
2018-Nov-07 11:32N 65°04' E 006°43'2 3.8
2018-Nov-07 11:01N 65°02' E 006°41'2 4.4
2018-Nov-07 10:31N 64°60' E 006°41'2 4.1
2018-Nov-07 10:02N 64°58' E 006°40'2 4.3
2018-Nov-07 09:31N 64°56' E 006°37'2 4.0
2018-Nov-07 09:01N 64°54' E 006°35'2 4.4
2018-Nov-07 08:32N 64°52' E 006°32'4 8.9
2018-Nov-07 08:02N 64°49' E 006°28'0 0.8
2018-Nov-07 07:30N 64°48' E 006°27'0 0.8
2018-Nov-07 07:02N 64°49' E 006°28'4 8.7
2018-Nov-07 06:31N 64°50' E 006°37'5 9.1
2018-Nov-07 05:59N 64°53' E 006°46'4 9.0
2018-Nov-07 05:31N 64°56' E 006°55'2 3.3
2018-Nov-07 05:01N 64°57' E 006°57'0 0.0
2018-Nov-07 04:28N 64°57' E 006°57'43 8.6
2018-Nov-06 23:29N 64°15' E 007°19'511.1
2018-Nov-06 23:02N 64°10' E 007°22'010.9
2018-Nov-06 23:00N 64°10' E 007°22'1010.3
2018-Nov-06 22:00N 63°60' E 007°26'510.2
2018-Nov-06 21:29N 63°54' E 007°26'510.1
2018-Nov-06 20:59N 63°49' E 007°27'5 9.9
2018-Nov-06 20:30N 63°45' E 007°28'510.1
2018-Nov-06 19:58N 63°39' E 007°31'510.2
2018-Nov-06 19:30N 63°35' E 007°33'4 9.4
2018-Nov-06 19:01N 63°30' E 007°34'010.2
2018-Nov-06 19:00N 63°30' E 007°34'510.1
2018-Nov-06 18:30N 63°25' E 007°35'4 9.8
2018-Nov-06 18:03N 63°21' E 007°36'0 9.7
2018-Nov-06 18:00N 63°20' E 007°36'5 9.4
2018-Nov-06 17:30N 63°16' E 007°39'4 9.7
2018-Nov-06 17:03N 63°12' E 007°45'110.4
2018-Nov-06 17:00N 63°12' E 007°45'510.3
2018-Nov-06 16:30N 63°07' E 007°41'3 6.6
2018-Nov-06 16:03N 63°06' E 007°47'0 0.0
2018-Nov-06 16:00N 63°06' E 007°47'0 0.0
2018-Nov-06 15:30N 63°06' E 007°47'0 0.0
2018-Nov-06 15:03N 63°06' E 007°47'0 0.0
2018-Nov-06 15:00N 63°06' E 007°47'0 0.0
2018-Nov-06 14:30N 63°06' E 007°47'0 0.0
2018-Nov-06 14:03N 63°06' E 007°47'0 0.0
2018-Nov-06 14:00N 63°06' E 007°47'0 0.0
2018-Nov-06 13:30N 63°06' E 007°47'0 0.0
2018-Nov-06 13:03N 63°06' E 007°47'0 0.0
2018-Nov-06 12:57N 63°06' E 007°47'0 0.0
2018-Nov-06 12:30N 63°06' E 007°47'0 0.0
2018-Nov-06 12:03N 63°06' E 007°47'0 0.0
2018-Nov-06 12:00N 63°06' E 007°47'0 0.0
2018-Nov-06 11:30N 63°06' E 007°47'0 0.0
2018-Nov-06 11:03N 63°06' E 007°47'0 0.0
2018-Nov-06 11:00N 63°06' E 007°47'0 0.0
2018-Nov-06 10:30N 63°06' E 007°47'0 0.0
2018-Nov-06 10:03N 63°06' E 007°47'0 0.0
2018-Nov-06 10:00N 63°06' E 007°47'0 0.0
2018-Nov-06 09:30N 63°06' E 007°47'0 0.0
2018-Nov-06 09:03N 63°06' E 007°47'0 0.0
2018-Nov-06 09:00N 63°06' E 007°47'0 0.0
2018-Nov-06 08:30N 63°06' E 007°47'0 0.0
2018-Nov-06 08:03N 63°06' E 007°47'0 0.0
2018-Nov-06 08:00N 63°06' E 007°47'0 0.0
2018-Nov-06 07:30N 63°06' E 007°47'0 0.0
2018-Nov-06 07:03N 63°06' E 007°47'0 0.0
2018-Nov-06 07:00N 63°06' E 007°47'0 0.0
2018-Nov-06 06:30N 63°06' E 007°47'0 0.0
2018-Nov-06 06:03N 63°06' E 007°47'0 0.0
2018-Nov-06 06:00N 63°06' E 007°47'0 0.0
2018-Nov-06 05:30N 63°06' E 007°47'0 0.0
2018-Nov-06 05:03N 63°06' E 007°47'0 0.0
2018-Nov-06 05:00N 63°06' E 007°47'0 0.0
2018-Nov-06 04:30N 63°06' E 007°47'0 0.0
2018-Nov-06 04:03N 63°06' E 007°47'0 0.0
2018-Nov-06 04:00N 63°06' E 007°47'0 0.0
2018-Nov-06 03:30N 63°06' E 007°47'0 0.0
2018-Nov-06 03:03N 63°06' E 007°47'0 0.0
2018-Nov-06 03:00N 63°06' E 007°47'0 0.0
2018-Nov-06 02:30N 63°06' E 007°47'0 0.0
2018-Nov-06 02:03N 63°06' E 007°47'0 0.0
2018-Nov-06 01:58N 63°06' E 007°47'0 0.0
2018-Nov-06 01:30N 63°06' E 007°47'0 0.0
2018-Nov-06 00:30N 63°06' E 007°47'0 0.0
2018-Nov-05 23:30N 63°06' E 007°47'0 0.0
2018-Nov-05 23:03N 63°06' E 007°47'0 0.0
2018-Nov-05 23:01N 63°06' E 007°47'0 0.0
2018-Nov-05 22:30N 63°06' E 007°47'0 0.0
2018-Nov-05 22:03N 63°06' E 007°47'0 0.0
2018-Nov-05 22:00N 63°06' E 007°47'0 0.0
2018-Nov-05 21:30N 63°06' E 007°47'0 0.0
2018-Nov-05 21:03N 63°06' E 007°47'0 0.0
2018-Nov-05 21:00N 63°06' E 007°47'0 0.0
2018-Nov-05 20:30N 63°06' E 007°47'0 0.0
2018-Nov-05 20:03N 63°06' E 007°47'0 0.0
2018-Nov-05 20:00N 63°06' E 007°47'0 0.0
2018-Nov-05 19:30N 63°06' E 007°47'0 0.0
2018-Nov-05 19:03N 63°06' E 007°47'0 0.0
2018-Nov-05 18:57N 63°06' E 007°47'0 0.0
2018-Nov-05 18:30N 63°06' E 007°47'0 0.7
2018-Nov-05 18:03N 63°06' E 007°48'0 0.0
2018-Nov-05 18:00N 63°06' E 007°48'0 0.0
2018-Nov-05 17:30N 63°06' E 007°48'0 0.0
2018-Nov-05 17:03N 63°06' E 007°48'0 0.0
2018-Nov-05 17:00N 63°06' E 007°48'0 0.0
2018-Nov-05 16:30N 63°06' E 007°48'0 0.0
2018-Nov-05 16:03N 63°06' E 007°48'0 0.0
2018-Nov-05 16:00N 63°06' E 007°48'0 0.0
2018-Nov-05 15:30N 63°06' E 007°48'0 0.0
2018-Nov-05 15:03N 63°06' E 007°48'0 0.0
2018-Nov-05 15:00N 63°06' E 007°48'0 0.0
2018-Nov-05 14:30N 63°06' E 007°48'0 0.9
2018-Nov-05 14:00N 63°06' E 007°47'0 0.0
2018-Nov-05 13:27N 63°06' E 007°47'0 0.0
2018-Nov-05 13:00N 63°06' E 007°47'0 0.0
2018-Nov-05 12:30N 63°06' E 007°47'0 0.0
2018-Nov-05 12:00N 63°06' E 007°47'0 0.0
2018-Nov-05 11:30N 63°06' E 007°47'0 0.0
2018-Nov-05 11:03N 63°06' E 007°47'0 0.0
2018-Nov-05 10:57N 63°06' E 007°47'0 0.0
2018-Nov-05 10:30N 63°06' E 007°47'0 0.0
2018-Nov-05 10:03N 63°06' E 007°47'0 0.0
2018-Nov-05 10:00N 63°06' E 007°47'0 0.0
2018-Nov-05 09:30N 63°06' E 007°47'0 0.0
2018-Nov-05 09:03N 63°06' E 007°47'0 0.0
2018-Nov-05 09:00N 63°06' E 007°47'0 0.0
2018-Nov-05 08:30N 63°06' E 007°47'0 0.0
2018-Nov-05 08:03N 63°06' E 007°47'0 0.0
2018-Nov-05 08:00N 63°06' E 007°47'0 0.0
2018-Nov-05 07:27N 63°06' E 007°47'0 0.0
2018-Nov-05 07:03N 63°06' E 007°47'0 0.0
2018-Nov-05 07:00N 63°06' E 007°47'0 0.0
2018-Nov-05 06:30N 63°06' E 007°47'0 0.0
2018-Nov-05 06:03N 63°06' E 007°47'0 0.0
2018-Nov-05 06:00N 63°06' E 007°47'0 0.0
2018-Nov-05 05:30N 63°06' E 007°47'0 0.0
2018-Nov-05 05:03N 63°06' E 007°47'0 0.0
2018-Nov-05 05:00N 63°06' E 007°47'0 0.0
2018-Nov-05 04:30N 63°06' E 007°47'0 0.0
2018-Nov-05 04:03N 63°06' E 007°47'0 0.0
2018-Nov-05 04:00N 63°06' E 007°47'0 0.0
2018-Nov-05 03:30N 63°06' E 007°47'0 0.0
2018-Nov-05 03:03N 63°06' E 007°47'0 0.0
2018-Nov-05 03:00N 63°06' E 007°47'0 0.0
2018-Nov-05 02:30N 63°06' E 007°47'0 0.0
2018-Nov-05 02:03N 63°06' E 007°47'0 0.0
2018-Nov-05 02:00N 63°06' E 007°47'0 0.0
2018-Nov-05 01:30N 63°06' E 007°47'0 0.0
2018-Nov-05 01:03N 63°06' E 007°47'0 0.0
2018-Nov-05 01:00N 63°06' E 007°47'0 0.0
2018-Nov-05 00:30N 63°06' E 007°47'0 0.0
2018-Nov-05 00:03N 63°06' E 007°47'0 0.0
2018-Nov-05 00:00N 63°06' E 007°47'0 0.0
2018-Nov-04 23:30N 63°06' E 007°47'0 0.0
2018-Nov-04 23:03N 63°06' E 007°47'0 0.0
2018-Nov-04 23:00N 63°06' E 007°47'0 0.0
2018-Nov-04 22:30N 63°06' E 007°47'0 0.0
2018-Nov-04 22:03N 63°06' E 007°47'0 0.0
2018-Nov-04 22:00N 63°06' E 007°47'0 0.0
2018-Nov-04 21:30N 63°06' E 007°47'0 0.0
2018-Nov-04 21:03N 63°06' E 007°47'0 0.0
2018-Nov-04 21:00N 63°06' E 007°47'0 0.0
2018-Nov-04 20:30N 63°06' E 007°47'0 0.0
2018-Nov-04 20:03N 63°06' E 007°47'0 0.0
2018-Nov-04 20:00N 63°06' E 007°47'0 0.0
2018-Nov-04 19:27N 63°06' E 007°47'0 0.0
2018-Nov-04 19:03N 63°06' E 007°47'0 0.0
2018-Nov-04 18:57N 63°06' E 007°47'0 0.0
2018-Nov-04 18:30N 63°06' E 007°47'0 0.0
2018-Nov-04 18:03N 63°06' E 007°47'0 0.0
2018-Nov-04 18:00N 63°06' E 007°47'0 0.0
2018-Nov-04 17:30N 63°06' E 007°47'0 0.0
2018-Nov-04 17:00N 63°06' E 007°47'0 0.0
2018-Nov-04 16:30N 63°06' E 007°47'0 0.0
2018-Nov-04 16:03N 63°06' E 007°47'0 0.0
2018-Nov-04 16:00N 63°06' E 007°47'0 0.0
2018-Nov-04 15:30N 63°06' E 007°47'0 0.0
2018-Nov-04 15:03N 63°06' E 007°47'0 0.0
2018-Nov-04 14:58N 63°06' E 007°47'0 0.9
2018-Nov-04 14:28N 63°06' E 007°48'0 0.0
2018-Nov-04 14:01N 63°06' E 007°48'0 0.0
2018-Nov-04 13:58N 63°06' E 007°48'0 0.0
2018-Nov-04 13:28N 63°06' E 007°48'0 0.0
2018-Nov-04 13:01N 63°06' E 007°48'0 0.0
2018-Nov-04 12:58N 63°06' E 007°48'0 0.0
2018-Nov-04 12:28N 63°06' E 007°48'0 0.0
2018-Nov-04 12:01N 63°06' E 007°48'0 0.0
2018-Nov-04 11:58N 63°06' E 007°48'0 0.0
2018-Nov-04 11:28N 63°06' E 007°48'0 0.0
2018-Nov-04 11:01N 63°06' E 007°48'0 0.0
2018-Nov-04 10:58N 63°06' E 007°48'0 0.0
2018-Nov-04 10:28N 63°06' E 007°48'0 0.0
2018-Nov-04 10:01N 63°06' E 007°48'0 0.0
2018-Nov-04 09:58N 63°06' E 007°48'0 0.0
2018-Nov-04 09:28N 63°06' E 007°48'0 0.0
2018-Nov-04 09:01N 63°06' E 007°48'0 0.0
2018-Nov-04 08:58N 63°06' E 007°48'0 0.0
2018-Nov-04 08:28N 63°06' E 007°48'0 0.0
2018-Nov-04 08:01N 63°06' E 007°48'0 0.0
2018-Nov-04 07:58N 63°06' E 007°48'0 0.0
2018-Nov-04 07:28N 63°06' E 007°48'0 0.0
2018-Nov-04 07:01N 63°06' E 007°48'0 0.0
2018-Nov-04 06:58N 63°06' E 007°48'0 0.0
2018-Nov-04 06:28N 63°06' E 007°48'0 0.0
2018-Nov-04 06:01N 63°06' E 007°48'0 0.0
2018-Nov-04 05:58N 63°06' E 007°48'0 0.0
2018-Nov-04 05:28N 63°06' E 007°48'0 0.0
2018-Nov-04 05:01N 63°06' E 007°48'0 0.0
2018-Nov-04 04:58N 63°06' E 007°48'0 0.0
2018-Nov-04 04:28N 63°06' E 007°48'0 0.0
2018-Nov-04 04:01N 63°06' E 007°48'0 0.0
2018-Nov-04 03:58N 63°06' E 007°48'0 0.0
2018-Nov-04 03:28N 63°06' E 007°48'0 0.0
2018-Nov-04 03:01N 63°06' E 007°48'0 0.0
2018-Nov-04 02:58N 63°06' E 007°48'0 0.0
2018-Nov-04 02:28N 63°06' E 007°48'0 0.0
2018-Nov-04 02:01N 63°06' E 007°48'0 0.0
2018-Nov-04 01:58N 63°06' E 007°48'0 0.0
2018-Nov-04 01:28N 63°06' E 007°48'0 0.0
2018-Nov-04 01:01N 63°06' E 007°48'0 0.0
2018-Nov-04 00:58N 63°06' E 007°48'0 0.0
2018-Nov-04 00:28N 63°06' E 007°48'0 0.0
2018-Nov-04 00:01N 63°06' E 007°48'0 0.0
2018-Nov-03 23:58N 63°06' E 007°48'0 0.0
2018-Nov-03 23:28N 63°06' E 007°48'0 0.0
2018-Nov-03 23:01N 63°06' E 007°48'0 0.0
2018-Nov-03 22:58N 63°06' E 007°48'0 0.0
2018-Nov-03 22:28N 63°06' E 007°48'0 0.0
2018-Nov-03 20:28N 63°06' E 007°48'0 0.0
2018-Nov-03 20:01N 63°06' E 007°48'0 0.1
2018-Nov-03 19:58N 63°06' E 007°48'0 0.0
2018-Nov-03 19:28N 63°06' E 007°48'0 0.0
2018-Nov-03 19:01N 63°06' E 007°48'0 0.0
2018-Nov-03 18:58N 63°06' E 007°48'0 0.0
2018-Nov-03 18:28N 63°06' E 007°48'0 0.0
2018-Nov-03 18:01N 63°06' E 007°48'0 0.0
2018-Nov-03 17:58N 63°06' E 007°48'0 0.0
2018-Nov-03 17:28N 63°06' E 007°48'0 0.0
2018-Nov-03 17:01N 63°06' E 007°48'0 0.0
2018-Nov-03 16:58N 63°06' E 007°48'0 0.0
2018-Nov-03 16:28N 63°06' E 007°48'0 0.8
2018-Nov-03 16:03N 63°06' E 007°47'0 0.0
2018-Nov-03 16:00N 63°06' E 007°47'0 0.0
2018-Nov-03 15:30N 63°06' E 007°47'0 0.0
2018-Nov-03 15:03N 63°06' E 007°47'0 0.0
2018-Nov-03 15:00N 63°06' E 007°47'0 0.0
2018-Nov-03 14:30N 63°06' E 007°47'0 0.0
2018-Nov-03 14:03N 63°06' E 007°47'0 0.0
2018-Nov-03 14:00N 63°06' E 007°47'0 0.0
2018-Nov-03 13:30N 63°06' E 007°47'0 0.0
2018-Nov-03 13:03N 63°06' E 007°47'0 0.0
2018-Nov-03 13:00N 63°06' E 007°47'0 0.0
2018-Nov-03 12:30N 63°06' E 007°47'0 0.5
2018-Nov-03 12:04N 63°06' E 007°47'0 4.4
2018-Nov-03 12:00N 63°06' E 007°46'3 6.6
2018-Nov-03 11:30N 63°08' E 007°41'4 9.3
2018-Nov-03 11:03N 63°12' E 007°45'0 8.7
2018-Nov-03 11:00N 63°13' E 007°44'5 9.2
2018-Nov-03 10:31N 63°15' E 007°36'4 8.6
2018-Nov-03 10:03N 63°19' E 007°36'0 8.5
2018-Nov-03 10:01N 63°20' E 007°36'4 8.3
2018-Nov-03 09:30N 63°24' E 007°35'4 8.1
2018-Nov-03 09:03N 63°28' E 007°34'0 8.7
2018-Nov-03 09:00N 63°28' E 007°34'4 8.1
2018-Nov-03 08:30N 63°32' E 007°33'4 8.3
2018-Nov-03 08:03N 63°36' E 007°33'0 8.6
2018-Nov-03 08:00N 63°36' E 007°33'4 8.6
2018-Nov-03 07:30N 63°41' E 007°31'4 8.7
2018-Nov-03 07:03N 63°44' E 007°30'0 8.9
2018-Nov-03 07:00N 63°45' E 007°30'5 9.0
2018-Nov-03 06:30N 63°49' E 007°29'4 8.7
2018-Nov-03 06:03N 63°53' E 007°29'1 8.7
2018-Nov-03 05:59N 63°54' E 007°29'4 8.7
2018-Nov-03 05:30N 63°58' E 007°28'4 8.6
2018-Nov-03 05:03N 64°02' E 007°27'0 9.9
2018-Nov-03 05:00N 64°02' E 007°27'611.5
2018-Nov-03 04:30N 64°08' E 007°25'612.3
2018-Nov-03 04:03N 64°14' E 007°23'112.5
2018-Nov-03 04:00N 64°14' E 007°22'612.4
2018-Nov-03 03:30N 64°20' E 007°20'612.5
2018-Nov-03 03:03N 64°26' E 007°18'112.7
2018-Nov-03 03:00N 64°26' E 007°18'712.4
2018-Nov-03 02:28N 64°33' E 007°15'25 1.2
2018-Nov-02 06:11N 64°52' E 006°36'112.4
2018-Nov-02 06:04N 64°51' E 006°37'112.5
2018-Nov-02 05:58N 64°50' E 006°38'612.5
2018-Nov-02 05:30N 64°44' E 006°42'612.2
2018-Nov-02 05:03N 64°39' E 006°45'112.6
2018-Nov-02 05:00N 64°38' E 006°45'612.3
2018-Nov-02 04:31N 64°32' E 006°48'612.6
2018-Nov-02 04:03N 64°27' E 006°51'112.8
2018-Nov-02 04:00N 64°26' E 006°52'612.7
2018-Nov-02 03:31N 64°20' E 006°56'612.3
2018-Nov-02 03:03N 64°15' E 006°60'112.3
2018-Nov-02 03:00N 64°14' E 007°00'612.0
2018-Nov-02 02:30N 64°08' E 007°04'612.5
2018-Nov-02 02:03N 64°03' E 007°07'012.9
2018-Nov-02 02:00N 64°02' E 007°08'713.2
2018-Nov-02 01:30N 63°56' E 007°12'613.2
2018-Nov-02 01:03N 63°50' E 007°16'113.0
2018-Nov-02 01:00N 63°49' E 007°16'113.0
2018-Nov-02 00:56N 63°49' E 007°17'412.3
2018-Nov-02 00:35N 63°45' E 007°20'111.5
2018-Nov-02 00:30N 63°44' E 007°20'512.2
2018-Nov-02 00:03N 63°38' E 007°24'112.4
2018-Nov-02 00:00N 63°38' E 007°24'612.8
2018-Nov-01 23:31N 63°32' E 007°28'613.1
2018-Nov-01 23:03N 63°26' E 007°31'113.2
2018-Nov-01 23:00N 63°25' E 007°32'713.3
2018-Nov-01 22:30N 63°19' E 007°36'612.8
2018-Nov-01 22:03N 63°14' E 007°43'113.0
2018-Nov-01 22:00N 63°13' E 007°44'611.6
2018-Nov-01 21:31N 63°08' E 007°41'3 7.4
2018-Nov-01 21:03N 63°06' E 007°48'0 0.9
2018-Nov-01 21:01N 63°06' E 007°48'0 0.0
2018-Nov-01 20:30N 63°06' E 007°48'0 0.0
2018-Nov-01 20:03N 63°06' E 007°48'0 0.0
2018-Nov-01 20:00N 63°06' E 007°48'0 0.0
2018-Nov-01 19:30N 63°06' E 007°48'0 0.0
2018-Nov-01 19:03N 63°06' E 007°48'0 0.0
2018-Nov-01 19:00N 63°06' E 007°48'0 0.0
2018-Nov-01 18:30N 63°06' E 007°48'0 0.0
2018-Nov-01 18:03N 63°06' E 007°48'0 0.0
2018-Nov-01 18:00N 63°06' E 007°48'0 0.4
2018-Nov-01 17:30N 63°06' E 007°47'0 0.3
2018-Nov-01 17:03N 63°06' E 007°47'0 0.0
2018-Nov-01 17:00N 63°06' E 007°47'0 0.0
2018-Nov-01 16:30N 63°06' E 007°47'0 0.0
2018-Nov-01 16:03N 63°06' E 007°47'0 0.0
2018-Nov-01 16:00N 63°06' E 007°47'0 0.0
2018-Nov-01 15:30N 63°06' E 007°47'0 0.0
2018-Nov-01 15:03N 63°06' E 007°47'0 0.0
2018-Nov-01 14:57N 63°06' E 007°47'0 0.0
2018-Nov-01 14:30N 63°06' E 007°47'0 0.0
2018-Nov-01 14:00N 63°06' E 007°47'0 0.0
2018-Nov-01 13:30N 63°06' E 007°47'0 0.0
2018-Nov-01 13:03N 63°06' E 007°47'0 0.0
2018-Nov-01 13:00N 63°06' E 007°47'0 0.0
2018-Nov-01 12:30N 63°06' E 007°47'0 0.0
2018-Nov-01 12:03N 63°06' E 007°47'0 0.0
2018-Nov-01 12:00N 63°06' E 007°47'0 0.0
2018-Nov-01 11:30N 63°06' E 007°47'0 0.0
2018-Nov-01 11:03N 63°06' E 007°47'0 0.0
2018-Nov-01 11:00N 63°06' E 007°47'0 0.0
2018-Nov-01 10:30N 63°06' E 007°47'0 0.0
2018-Nov-01 10:03N 63°06' E 007°47'0 0.0
2018-Nov-01 10:00N 63°06' E 007°47'0 0.0
2018-Nov-01 09:30N 63°06' E 007°47'0 0.0
2018-Nov-01 09:03N 63°06' E 007°47'0 0.0
2018-Nov-01 09:00N 63°06' E 007°47'0 0.0
2018-Nov-01 08:27N 63°06' E 007°47'0 0.0
2018-Nov-01 08:03N 63°06' E 007°47'0 0.6
2018-Nov-01 08:00N 63°06' E 007°47'3 5.9
2018-Nov-01 07:30N 63°07' E 007°41'4 9.7
2018-Nov-01 07:03N 63°10' E 007°47'110.6
2018-Nov-01 07:00N 63°11' E 007°47'510.4
2018-Nov-01 06:30N 63°13' E 007°57'4 9.9
2018-Nov-01 06:03N 63°16' E 008°05'0 9.5
2018-Nov-01 06:00N 63°16' E 008°06'5 9.5
2018-Nov-01 05:30N 63°19' E 008°15'4 8.7
2018-Nov-01 05:03N 63°22' E 008°18'1 9.8
2018-Nov-01 05:00N 63°23' E 008°17'4 8.9
2018-Nov-01 04:30N 63°27' E 008°14'4 9.1
2018-Nov-01 04:03N 63°31' E 008°11'0 8.8
2018-Nov-01 04:00N 63°31' E 008°10'5 9.8
2018-Nov-01 03:30N 63°36' E 008°05'511.5
2018-Nov-01 03:03N 63°40' E 007°58'111.3
2018-Nov-01 03:00N 63°40' E 007°57'  

Dump ship's entire track history